Time;durP1;ratioP1;P1;durP2;ratioP2;P2;SDS_P1;SDS_P2;PMS_P1;PMS_P2;Temp;Humidity;BMP_temperature;BMP_pressure;BME280_temperature;BME280_humidity;BME280_pressure;Samples;Min_cycle;Max_cycle;Signal;HPM_P1;HPM_P2
2023/01/19 00:01:48;;;;;;;19.63;14.50;;;;;;;;;;4973033;28;20057;-90
2023/01/19 00:04:14;;;;;;;23.80;15.88;;;;;;;;;;4980463;28;20050;-87
2023/01/19 00:09:37;;;;;;;24.23;16.02;;;;;;;;;;4981284;28;20069;-88
2023/01/19 00:12:03;;;;;;;24.48;15.45;;;;;;;;;;4959880;28;20070;-89
2023/01/19 00:14:30;;;;;;;23.23;15.60;;;;;;;;;;4959921;28;20039;-89
2023/01/19 00:16:56;;;;;;;19.40;13.85;;;;;;;;;;4960075;28;20022;-92
2023/01/19 00:19:22;;;;;;;22.70;14.90;;;;;;;;;;4959860;28;20030;-89
2023/01/19 00:21:48;;;;;;;18.63;12.65;;;;;;;;;;4959457;28;20055;-89
2023/01/19 00:24:14;;;;;;;19.98;14.35;;;;;;;;;;4959431;28;20054;-90
2023/01/19 00:26:43;;;;;;;21.00;14.27;;;;;;;;;;4959887;28;20019;-90
2023/01/19 00:29:14;;;;;;;23.90;15.38;;;;;;;;;;4959512;28;20045;-89
2023/01/19 00:31:43;;;;;;;23.67;14.93;;;;;;;;;;4959719;28;20050;-91
2023/01/19 00:34:09;;;;;;;24.90;16.08;;;;;;;;;;4959722;28;20061;-88
2023/01/19 00:36:35;;;;;;;20.75;14.40;;;;;;;;;;4962551;28;20023;-92
2023/01/19 00:39:02;;;;;;;21.95;14.65;;;;;;;;;;4960022;28;20278;-89
2023/01/19 00:44:15;;;;;;;23.35;16.33;;;;;;;;;;4976900;28;20098;-89
2023/01/19 00:46:41;;;;;;;25.65;17.33;;;;;;;;;;4959636;28;20476;-90
2023/01/19 00:49:10;;;;;;;24.30;17.33;;;;;;;;;;4959946;28;20042;-91
2023/01/19 00:51:39;;;;;;;24.85;16.88;;;;;;;;;;4959432;28;20030;-90
2023/01/19 00:54:09;;;;;;;22.38;15.82;;;;;;;;;;4960913;28;20034;-90
2023/01/19 00:56:35;;;;;;;24.85;16.70;;;;;;;;;;4979563;28;20027;-91
2023/01/19 00:59:02;;;;;;;26.33;17.33;;;;;;;;;;4958898;28;20031;-90
2023/01/19 01:01:31;;;;;;;20.95;13.77;;;;;;;;;;4959110;28;20121;-92
2023/01/19 01:03:57;;;;;;;22.48;15.23;;;;;;;;;;4959258;28;20495;-89
2023/01/19 01:06:23;;;;;;;23.95;16.25;;;;;;;;;;4959270;28;20112;-90
2023/01/19 01:08:49;;;;;;;23.80;16.55;;;;;;;;;;4965982;28;20035;-88
2023/01/19 01:11:15;;;;;;;22.52;15.30;;;;;;;;;;4975292;28;20023;-88
2023/01/19 01:13:41;;;;;;;14.98;10.70;;;;;;;;;;4962164;28;20038;-91
2023/01/19 01:16:08;;;;;;;11.52;8.80;;;;;;;;;;4959754;28;20022;-88
2023/01/19 01:18:34;;;;;;;10.07;6.72;;;;;;;;;;4958949;28;20030;-93
2023/01/19 01:21:05;;;;;;;9.10;6.22;;;;;;;;;;4958584;28;20027;-89
2023/01/19 01:23:31;;;;;;;9.18;6.65;;;;;;;;;;4958880;28;20031;-91
2023/01/19 01:25:57;;;;;;;9.55;6.88;;;;;;;;;;4958208;28;20051;-92
2023/01/19 01:28:23;;;;;;;9.38;6.97;;;;;;;;;;4958406;28;20035;-90
2023/01/19 01:30:54;;;;;;;11.40;6.63;;;;;;;;;;4975885;28;20050;-88
2023/01/19 01:33:20;;;;;;;12.52;7.55;;;;;;;;;;4958255;28;20029;-88
2023/01/19 01:36:17;;;;;;;11.65;7.45;;;;;;;;;;4975361;28;20033;-90
2023/01/19 01:38:47;;;;;;;11.00;6.78;;;;;;;;;;4958609;28;20026;-92
2023/01/19 01:41:13;;;;;;;10.35;6.20;;;;;;;;;;4959052;28;20026;-88
2023/01/19 01:43:55;;;;;;;9.48;6.47;;;;;;;;;;4958733;28;20037;-90
2023/01/19 01:46:21;;;;;;;8.98;6.55;;;;;;;;;;4959006;28;20054;-90
2023/01/19 01:48:56;;;;;;;9.10;6.32;;;;;;;;;;4959536;28;20464;-89
2023/01/19 01:51:31;;;;;;;8.88;6.25;;;;;;;;;;4962178;28;20034;-87
2023/01/19 01:54:08;;;;;;;8.38;5.70;;;;;;;;;;4978827;28;20023;-87
2023/01/19 01:56:35;;;;;;;9.00;6.25;;;;;;;;;;4973060;28;20150;-87
2023/01/19 01:59:05;;;;;;;10.30;6.75;;;;;;;;;;4961557;28;20126;-89
2023/01/19 02:04:16;;;;;;;9.02;6.00;;;;;;;;;;4975503;28;20065;-88
2023/01/19 02:15:29;;;;;;;10.95;6.78;;;;;;;;;;4975641;28;20058;-92
2023/01/19 02:17:57;;;;;;;11.43;7.13;;;;;;;;;;4958157;28;20023;-88
2023/01/19 02:20:35;;;;;;;9.25;6.10;;;;;;;;;;4958164;28;20027;-90
2023/01/19 02:23:03;;;;;;;9.20;6.15;;;;;;;;;;4957669;28;20031;-91
2023/01/19 02:25:39;;;;;;;9.90;6.40;;;;;;;;;;4957578;28;20058;-91
2023/01/19 02:28:11;;;;;;;9.18;6.03;;;;;;;;;;4957969;28;20121;-91
2023/01/19 02:30:38;;;;;;;9.80;5.90;;;;;;;;;;4975150;28;20058;-89
2023/01/19 02:33:06;;;;;;;9.63;6.47;;;;;;;;;;4957642;28;20027;-88
2023/01/19 02:35:32;;;;;;;9.20;6.20;;;;;;;;;;4975215;28;20101;-90
2023/01/19 02:37:58;;;;;;;9.82;6.10;;;;;;;;;;4957780;28;20026;-88
2023/01/19 02:40:28;;;;;;;8.07;5.82;;;;;;;;;;4957850;28;20031;-90
2023/01/19 02:42:56;;;;;;;8.93;6.15;;;;;;;;;;4958008;28;20062;-87
2023/01/19 02:45:29;;;;;;;9.32;6.13;;;;;;;;;;4958015;28;20109;-91
2023/01/19 02:47:55;;;;;;;10.80;6.75;;;;;;;;;;4957840;28;20090;-88
2023/01/19 02:50:41;;;;;;;10.02;6.18;;;;;;;;;;4973196;28;20146;-88
2023/01/19 02:53:21;;;;;;;11.75;7.47;;;;;;;;;;4965396;28;20499;-88
2023/01/19 02:56:23;;;;;;;12.73;7.05;;;;;;;;;;4961179;28;20023;-88
2023/01/19 02:59:16;;;;;;;9.63;6.63;;;;;;;;;;4981052;28;20027;-87
2023/01/19 03:01:42;;;;;;;9.68;6.35;;;;;;;;;;4958557;28;20038;-88
2023/01/19 03:04:12;;;;;;;10.52;6.35;;;;;;;;;;4961423;28;20027;-88
2023/01/19 03:06:51;;;;;;;10.60;6.72;;;;;;;;;;4961225;28;20034;-89
2023/01/19 03:09:37;;;;;;;9.52;5.97;;;;;;;;;;4961244;28;20035;-88
2023/01/19 03:12:14;;;;;;;10.57;7.38;;;;;;;;;;4961618;28;20030;-88
2023/01/19 03:14:46;;;;;;;11.02;7.15;;;;;;;;;;4958429;28;20166;-89
2023/01/19 03:17:12;;;;;;;9.88;6.97;;;;;;;;;;4958742;28;20030;-88
2023/01/19 03:19:40;;;;;;;10.48;6.85;;;;;;;;;;4958547;28;20030;-88
2023/01/19 03:22:08;;;;;;;10.95;7.07;;;;;;;;;;4958597;28;20170;-88
2023/01/19 03:24:37;;;;;;;9.98;6.65;;;;;;;;;;4967517;28;20130;-88
2023/01/19 03:27:25;;;;;;;11.88;6.90;;;;;;;;;;4977653;28;20381;-90
2023/01/19 03:30:00;;;;;;;11.05;7.50;;;;;;;;;;4978001;28;20537;-89
2023/01/19 03:32:31;;;;;;;11.23;7.45;;;;;;;;;;4977823;28;20023;-87
2023/01/19 03:35:04;;;;;;;10.73;7.25;;;;;;;;;;4978282;28;20031;-90
2023/01/19 03:37:31;;;;;;;10.90;7.32;;;;;;;;;;4980212;28;20048;-88
2023/01/19 03:39:57;;;;;;;10.30;7.00;;;;;;;;;;4981106;28;20030;-86
2023/01/19 03:42:24;;;;;;;10.70;7.75;;;;;;;;;;4980732;28;20049;-92
2023/01/19 03:44:54;;;;;;;11.05;7.32;;;;;;;;;;4979602;28;20033;-88
2023/01/19 03:47:21;;;;;;;10.73;7.38;;;;;;;;;;4999851;28;20023;-88
2023/01/19 03:49:49;;;;;;;12.27;8.25;;;;;;;;;;5003449;28;20088;-88
2023/01/19 03:52:18;;;;;;;12.32;8.25;;;;;;;;;;4977893;28;20553;-91
2023/01/19 03:54:44;;;;;;;11.07;7.68;;;;;;;;;;4977481;28;20121;-89
2023/01/19 03:57:13;;;;;;;12.77;8.55;;;;;;;;;;4977119;28;20033;-89
2023/01/19 03:59:39;;;;;;;13.32;8.00;;;;;;;;;;4994441;28;20034;-90
2023/01/19 04:02:05;;;;;;;11.80;8.10;;;;;;;;;;4977339;28;20117;-90
2023/01/19 04:04:34;;;;;;;14.60;8.80;;;;;;;;;;4977267;28;20451;-91
2023/01/19 04:07:01;;;;;;;12.60;8.60;;;;;;;;;;4977050;28;20494;-88
2023/01/19 04:09:33;;;;;;;12.43;8.85;;;;;;;;;;4994914;28;20062;-92
2023/01/19 04:12:00;;;;;;;14.45;8.80;;;;;;;;;;4976882;28;20133;-88
2023/01/19 04:14:30;;;;;;;13.02;8.73;;;;;;;;;;4977469;28;20422;-90
2023/01/19 04:17:02;;;;;;;12.20;8.27;;;;;;;;;;4978054;28;20030;-91
2023/01/19 04:19:36;;;;;;;13.95;9.45;;;;;;;;;;4977100;28;20038;-90
2023/01/19 04:22:03;;;;;;;14.15;9.70;;;;;;;;;;4977004;28;20046;-88
2023/01/19 04:24:29;;;;;;;14.18;9.38;;;;;;;;;;4968598;28;20070;-90
2023/01/19 04:26:56;;;;;;;16.50;10.00;;;;;;;;;;4957849;28;20396;-89
2023/01/19 04:29:23;;;;;;;14.82;9.73;;;;;;;;;;4958438;28;20519;-88
2023/01/19 04:31:52;;;;;;;13.10;9.35;;;;;;;;;;4961371;28;20035;-90
2023/01/19 04:34:18;;;;;;;13.63;9.27;;;;;;;;;;4957710;28;20023;-87
2023/01/19 04:36:45;;;;;;;14.10;9.00;;;;;;;;;;4957296;28;20027;-90
2023/01/19 04:39:11;;;;;;;16.40;9.57;;;;;;;;;;4957582;28;20027;-88
2023/01/19 04:41:37;;;;;;;12.13;8.73;;;;;;;;;;4957905;28;20027;-89
2023/01/19 04:44:04;;;;;;;14.52;9.68;;;;;;;;;;4957632;28;20475;-89
2023/01/19 04:46:33;;;;;;;14.00;9.52;;;;;;;;;;4957399;28;20033;-91
2023/01/19 04:54:20;;;;;;;18.65;11.32;;;;;;;;;;5043134;23;20050;-90
2023/01/19 04:56:46;;;;;;;15.88;10.32;;;;;;;;;;4970944;28;20015;-91
2023/01/19 04:59:12;;;;;;;15.70;11.10;;;;;;;;;;4975539;28;20053;-87
2023/01/19 05:01:38;;;;;;;16.58;11.02;;;;;;;;;;4957337;28;20105;-89
2023/01/19 05:04:06;;;;;;;18.35;11.25;;;;;;;;;;4963704;28;20027;-88
2023/01/19 05:06:36;;;;;;;15.98;11.02;;;;;;;;;;4970745;28;20034;-88
2023/01/19 05:09:02;;;;;;;16.27;10.43;;;;;;;;;;4976128;28;20046;-88
2023/01/19 05:11:28;;;;;;;19.50;11.80;;;;;;;;;;4958846;28;20023;-91
2023/01/19 05:13:57;;;;;;;17.02;10.73;;;;;;;;;;4959339;28;20045;-89
2023/01/19 05:16:26;;;;;;;17.23;11.00;;;;;;;;;;4960707;28;20129;-90
2023/01/19 05:18:52;;;;;;;17.83;11.82;;;;;;;;;;4962323;28;20030;-88
2023/01/19 05:21:19;;;;;;;17.02;10.98;;;;;;;;;;4956863;28;20084;-90
2023/01/19 05:23:57;;;;;;;17.60;11.73;;;;;;;;;;4956654;28;20037;-90
2023/01/19 05:26:23;;;;;;;17.52;11.82;;;;;;;;;;4956996;28;20073;-87
2023/01/19 05:28:52;;;;;;;16.85;11.15;;;;;;;;;;4957619;28;20159;-91
2023/01/19 05:31:18;;;;;;;19.17;11.65;;;;;;;;;;4957284;28;20059;-88
2023/01/19 05:33:44;;;;;;;19.00;12.43;;;;;;;;;;4960456;28;20027;-87
2023/01/19 05:36:16;;;;;;;19.75;12.38;;;;;;;;;;4978590;28;20026;-87
2023/01/19 05:38:45;;;;;;;22.45;15.30;;;;;;;;;;4976475;28;20029;-88
2023/01/19 05:41:12;;;;;;;18.90;12.75;;;;;;;;;;4970525;28;20038;-88
2023/01/19 05:43:41;;;;;;;19.10;13.00;;;;;;;;;;4960326;28;20031;-89
2023/01/19 05:46:14;;;;;;;18.92;13.63;;;;;;;;;;4958042;28;20031;-87
2023/01/19 05:48:49;;;;;;;21.90;14.75;;;;;;;;;;4959303;28;20038;-89
2023/01/19 05:51:21;;;;;;;26.20;18.17;;;;;;;;;;4956191;29;20027;-94
2023/01/19 05:53:47;;;;;;;41.17;25.33;;;;;;;;;;4923044;29;20051;-88
2023/01/19 05:56:13;;;;;;;22.70;14.73;;;;;;;;;;4918213;29;20035;-88
2023/01/19 05:58:39;;;;;;;18.25;12.57;;;;;;;;;;4917543;29;20027;-88
2023/01/19 06:01:07;;;;;;;18.73;13.07;;;;;;;;;;4918939;29;20031;-87
2023/01/19 06:03:41;;;;;;;18.83;12.70;;;;;;;;;;4918031;29;20086;-96
2023/01/19 06:06:07;;;;;;;20.75;13.77;;;;;;;;;;4917199;29;20042;-88
2023/01/19 06:08:33;;;;;;;22.65;14.07;;;;;;;;;;4915509;29;20035;-90
2023/01/19 06:11:05;;;;;;;26.90;20.10;;;;;;;;;;4918053;29;20346;-95
2023/01/19 06:13:31;;;;;;;19.92;13.55;;;;;;;;;;4919833;29;20039;-90
2023/01/19 06:15:58;;;;;;;20.20;12.77;;;;;;;;;;4919401;29;20032;-89
2023/01/19 06:18:24;;;;;;;21.10;15.32;;;;;;;;;;4919678;29;20028;-89
2023/01/19 06:20:57;;;;;;;18.23;12.73;;;;;;;;;;4919596;29;20040;-88
2023/01/19 06:23:33;;;;;;;18.73;13.32;;;;;;;;;;4919761;29;20020;-89
2023/01/19 06:25:59;;;;;;;20.35;12.77;;;;;;;;;;4920255;29;20186;-89
2023/01/19 06:29:02;;;;;;;23.00;13.40;;;;;;;;;;4919103;29;20036;-94
2023/01/19 06:31:28;;;;;;;21.35;13.63;;;;;;;;;;4928253;29;20118;-89
2023/01/19 06:33:54;;;;;;;26.65;15.23;;;;;;;;;;4925610;29;20027;-89
2023/01/19 06:36:20;;;;;;;19.25;13.00;;;;;;;;;;4925566;29;20032;-87
2023/01/19 06:38:46;;;;;;;22.58;14.15;;;;;;;;;;4925821;29;20019;-88
2023/01/19 06:41:12;;;;;;;22.55;15.93;;;;;;;;;;4925735;29;20528;-88
2023/01/19 06:43:38;;;;;;;21.95;13.65;;;;;;;;;;4925449;29;20110;-88
2023/01/19 06:46:04;;;;;;;19.58;12.90;;;;;;;;;;4926006;29;20032;-88
2023/01/19 06:48:30;;;;;;;25.17;14.77;;;;;;;;;;4924531;29;20039;-87
2023/01/19 06:50:57;;;;;;;21.08;14.73;;;;;;;;;;4923802;29;20031;-85
2023/01/19 06:53:23;;;;;;;19.67;13.75;;;;;;;;;;4951322;29;20503;-89
2023/01/19 06:55:49;;;;;;;22.45;15.48;;;;;;;;;;4959159;29;20050;-88
2023/01/19 06:58:15;;;;;;;22.77;14.15;;;;;;;;;;4942452;29;20027;-89
2023/01/19 07:00:41;;;;;;;25.02;15.10;;;;;;;;;;4942450;29;20122;-89
2023/01/19 07:03:08;;;;;;;24.30;14.90;;;;;;;;;;4942619;29;20627;-89
2023/01/19 07:05:35;;;;;;;23.13;14.98;;;;;;;;;;4942937;29;20024;-88
2023/01/19 07:08:02;;;;;;;21.00;14.50;;;;;;;;;;4942996;29;20039;-89
2023/01/19 07:10:28;;;;;;;23.35;16.17;;;;;;;;;;4942514;29;20054;-89
2023/01/19 07:12:56;;;;;;;23.00;15.00;;;;;;;;;;4959461;29;20057;-89
2023/01/19 07:15:22;;;;;;;23.80;15.48;;;;;;;;;;4944577;28;20058;-89
2023/01/19 07:17:48;;;;;;;21.83;14.82;;;;;;;;;;4944710;29;20035;-88
2023/01/19 07:20:16;;;;;;;21.45;14.07;;;;;;;;;;4945106;29;20023;-88
2023/01/19 07:22:44;;;;;;;21.35;14.55;;;;;;;;;;4961566;28;20031;-88
2023/01/19 07:25:13;;;;;;;22.13;14.18;;;;;;;;;;4945027;29;20023;-89
2023/01/19 07:27:39;;;;;;;19.05;12.50;;;;;;;;;;4962603;28;20039;-87
2023/01/19 07:30:07;;;;;;;19.13;12.73;;;;;;;;;;4968097;29;20027;-87
2023/01/19 07:32:34;;;;;;;20.88;13.50;;;;;;;;;;4959181;28;20506;-90
2023/01/19 07:35:01;;;;;;;20.90;12.88;;;;;;;;;;4946691;28;20131;-89
2023/01/19 07:40:03;;;;;;;21.25;13.68;;;;;;;;;;5098043;23;20081;-88
2023/01/19 07:42:29;;;;;;;20.33;13.10;;;;;;;;;;4980569;28;20045;-88
2023/01/19 07:44:58;;;;;;;19.17;13.32;;;;;;;;;;4980510;28;20090;-90
2023/01/19 07:47:24;;;;;;;18.13;12.38;;;;;;;;;;4980080;28;20065;-89
2023/01/19 07:49:51;;;;;;;16.80;10.48;;;;;;;;;;4981043;28;20479;-88
2023/01/19 07:52:17;;;;;;;16.27;10.30;;;;;;;;;;4979670;28;20030;-90
2023/01/19 07:54:43;;;;;;;16.58;9.90;;;;;;;;;;4979797;28;20085;-88
2023/01/19 07:57:09;;;;;;;14.95;9.05;;;;;;;;;;4979607;28;20026;-88
2023/01/19 07:59:42;;;;;;;15.13;9.68;;;;;;;;;;4984305;28;20279;-94
2023/01/19 08:04:37;;;;;;;15.63;10.05;;;;;;;;;;5062220;23;20329;-87
2023/01/19 08:07:03;;;;;;;13.70;9.32;;;;;;;;;;4959617;28;20029;-88
2023/01/19 08:09:29;;;;;;;15.70;9.55;;;;;;;;;;4958979;28;20026;-87
2023/01/19 08:11:56;;;;;;;12.50;8.70;;;;;;;;;;4959049;28;20050;-87
2023/01/19 08:14:22;;;;;;;15.60;9.20;;;;;;;;;;4959430;28;20070;-87
2023/01/19 08:16:51;;;;;;;14.15;9.45;;;;;;;;;;4960484;28;20031;-95
2023/01/19 08:19:24;;;;;;;16.00;10.05;;;;;;;;;;4980465;28;20023;-90
2023/01/19 08:21:50;;;;;;;21.00;13.02;;;;;;;;;;4970439;28;20025;-89
2023/01/19 08:24:21;;;;;;;19.90;12.05;;;;;;;;;;4985695;28;20030;-88
2023/01/19 08:26:48;;;;;;;13.68;9.02;;;;;;;;;;4982645;28;20030;-87
2023/01/19 08:29:14;;;;;;;18.88;10.95;;;;;;;;;;4976888;28;20038;-87
2023/01/19 08:31:43;;;;;;;14.05;9.18;;;;;;;;;;4958927;28;20435;-87
2023/01/19 08:34:09;;;;;;;14.50;8.73;;;;;;;;;;4959080;28;20042;-88
2023/01/19 08:36:38;;;;;;;12.70;8.98;;;;;;;;;;4959102;28;20682;-94
2023/01/19 08:39:12;;;;;;;15.18;9.65;;;;;;;;;;4958759;28;20114;-92
2023/01/19 08:41:38;;;;;;;14.00;9.20;;;;;;;;;;4958940;28;20039;-90
2023/01/19 08:44:04;;;;;;;15.77;10.00;;;;;;;;;;4959320;28;20499;-90
2023/01/19 08:46:33;;;;;;;21.38;12.30;;;;;;;;;;4959091;28;20449;-89
2023/01/19 08:48:59;;;;;;;18.60;11.75;;;;;;;;;;4959243;28;20476;-90
2023/01/19 08:51:35;;;;;;;21.17;11.80;;;;;;;;;;4959926;28;20037;-95
2023/01/19 08:54:09;;;;;;;17.25;10.77;;;;;;;;;;4958412;28;20459;-88
2023/01/19 08:56:35;;;;;;;19.95;11.77;;;;;;;;;;4959402;28;20054;-90
2023/01/19 08:59:01;;;;;;;15.98;10.50;;;;;;;;;;4959087;28;20030;-90
2023/01/19 09:01:27;;;;;;;21.77;12.20;;;;;;;;;;4959309;28;20054;-90
2023/01/19 09:03:53;;;;;;;14.70;10.60;;;;;;;;;;4968465;28;20443;-89
2023/01/19 09:06:20;;;;;;;14.93;10.20;;;;;;;;;;4968813;28;20026;-89
2023/01/19 09:08:46;;;;;;;24.08;15.50;;;;;;;;;;4958918;28;20038;-90
2023/01/19 09:11:14;;;;;;;58.97;35.88;;;;;;;;;;4958148;28;20027;-89
2023/01/19 09:13:41;;;;;;;69.30;36.05;;;;;;;;;;4962209;28;20035;-89
2023/01/19 09:16:07;;;;;;;23.27;13.40;;;;;;;;;;4983923;28;20038;-88
2023/01/19 09:18:34;;;;;;;23.45;13.40;;;;;;;;;;4956267;28;20090;-87
2023/01/19 09:21:00;;;;;;;18.58;12.20;;;;;;;;;;4959008;28;20027;-87
2023/01/19 09:23:27;;;;;;;24.27;12.48;;;;;;;;;;4959964;28;20031;-88
2023/01/19 09:25:58;;;;;;;20.85;11.30;;;;;;;;;;4979628;28;20034;-88
2023/01/19 09:28:24;;;;;;;19.45;11.90;;;;;;;;;;4976651;28;20038;-88
2023/01/19 09:30:50;;;;;;;14.07;8.77;;;;;;;;;;4958471;28;20026;-89
2023/01/19 09:33:17;;;;;;;13.15;8.98;;;;;;;;;;4958467;28;20035;-89
2023/01/19 09:35:44;;;;;;;14.20;8.93;;;;;;;;;;4958320;28;20066;-88
2023/01/19 09:38:11;;;;;;;13.73;9.18;;;;;;;;;;4958562;28;20428;-89
2023/01/19 09:40:41;;;;;;;13.27;9.23;;;;;;;;;;4958612;28;20495;-89
2023/01/19 09:43:13;;;;;;;14.77;9.40;;;;;;;;;;4958655;28;20113;-88
2023/01/19 09:45:45;;;;;;;14.00;9.18;;;;;;;;;;4975600;28;20058;-88
2023/01/19 09:48:37;;;;;;;15.65;9.32;;;;;;;;;;4960340;28;20509;-88
2023/01/19 09:51:06;;;;;;;19.50;10.05;;;;;;;;;;4929215;28;20526;-88
2023/01/19 09:53:51;;;;;;;15.68;9.13;;;;;;;;;;4958087;28;20539;-88
2023/01/19 09:56:19;;;;;;;15.23;9.18;;;;;;;;;;4958103;28;20399;-90
2023/01/19 09:58:45;;;;;;;13.77;8.45;;;;;;;;;;4957672;28;20023;-90
2023/01/19 10:01:29;;;;;;;15.68;9.45;;;;;;;;;;4956740;28;20039;-90
2023/01/19 10:04:07;;;;;;;12.40;7.95;;;;;;;;;;4972678;28;20042;-88
2023/01/19 10:06:39;;;;;;;13.27;8.50;;;;;;;;;;4974259;28;20110;-91
2023/01/19 10:09:10;;;;;;;13.27;9.20;;;;;;;;;;4957061;28;20099;-88
2023/01/19 10:11:41;;;;;;;13.93;9.25;;;;;;;;;;4957585;28;20030;-86
2023/01/19 10:14:12;;;;;;;21.98;15.38;;;;;;;;;;4957897;28;20027;-89
2023/01/19 10:16:57;;;;;;;13.80;9.13;;;;;;;;;;4957969;28;20031;-90
2023/01/19 10:19:27;;;;;;;13.90;9.85;;;;;;;;;;4956821;28;20041;-86
2023/01/19 10:21:55;;;;;;;12.55;8.15;;;;;;;;;;4957494;28;20026;-89
2023/01/19 10:24:21;;;;;;;13.10;8.45;;;;;;;;;;4957768;28;20089;-86
2023/01/19 10:26:53;;;;;;;12.98;8.55;;;;;;;;;;4957797;28;20033;-90
2023/01/19 10:29:22;;;;;;;14.35;9.10;;;;;;;;;;4957650;28;20035;-89
2023/01/19 10:31:49;;;;;;;13.68;8.23;;;;;;;;;;4957532;28;20030;-86
2023/01/19 10:34:17;;;;;;;14.77;8.15;;;;;;;;;;4958085;28;20499;-89
2023/01/19 10:36:44;;;;;;;14.10;9.20;;;;;;;;;;4957758;28;20022;-88
2023/01/19 10:39:13;;;;;;;13.90;8.85;;;;;;;;;;4957259;28;20380;-88
2023/01/19 10:41:44;;;;;;;13.68;9.98;;;;;;;;;;4957700;28;20031;-87
2023/01/19 10:44:10;;;;;;;14.90;8.25;;;;;;;;;;4957808;28;20030;-88
2023/01/19 10:46:37;;;;;;;14.68;9.77;;;;;;;;;;4957636;28;20054;-88
2023/01/19 10:49:03;;;;;;;13.77;8.45;;;;;;;;;;4955497;28;20038;-88
2023/01/19 10:51:29;;;;;;;14.80;8.68;;;;;;;;;;4955253;28;20418;-87
2023/01/19 10:53:57;;;;;;;11.95;7.70;;;;;;;;;;4955406;28;20027;-88
2023/01/19 10:56:25;;;;;;;11.73;7.97;;;;;;;;;;4955690;28;20023;-87
2023/01/19 10:58:51;;;;;;;11.95;8.40;;;;;;;;;;4955627;28;20038;-87
2023/01/19 11:01:19;;;;;;;12.45;8.75;;;;;;;;;;4955489;28;20027;-88
2023/01/19 11:03:45;;;;;;;12.93;8.88;;;;;;;;;;4955042;28;20211;-89
2023/01/19 11:06:14;;;;;;;13.55;9.30;;;;;;;;;;4957300;28;20117;-88
2023/01/19 11:08:41;;;;;;;13.23;9.05;;;;;;;;;;4959253;28;20041;-88
2023/01/19 11:11:08;;;;;;;14.15;9.50;;;;;;;;;;4958273;28;20065;-89
2023/01/19 11:13:35;;;;;;;14.02;9.23;;;;;;;;;;4959167;28;20022;-90
2023/01/19 11:16:14;;;;;;;14.95;9.82;;;;;;;;;;4967361;28;20033;-89
2023/01/19 11:18:40;;;;;;;15.88;9.90;;;;;;;;;;4976709;28;20030;-88
2023/01/19 11:21:08;;;;;;;14.95;9.85;;;;;;;;;;4978781;28;20007;-87
2023/01/19 11:23:45;;;;;;;15.60;9.98;;;;;;;;;;4968717;28;20030;-89
2023/01/19 11:26:15;;;;;;;14.52;9.45;;;;;;;;;;4980475;28;20482;-89
2023/01/19 11:28:53;;;;;;;19.42;10.95;;;;;;;;;;4961026;28;20122;-88
2023/01/19 11:31:27;;;;;;;16.63;10.75;;;;;;;;;;4960931;28;20435;-88
2023/01/19 11:33:55;;;;;;;13.80;9.20;;;;;;;;;;4964004;28;20027;-92
2023/01/19 11:36:25;;;;;;;16.65;10.43;;;;;;;;;;4960411;28;20126;-91
2023/01/19 11:39:00;;;;;;;16.98;10.30;;;;;;;;;;4961263;28;20037;-91
2023/01/19 11:41:28;;;;;;;15.13;9.50;;;;;;;;;;4961052;28;20065;-94
2023/01/19 11:43:56;;;;;;;15.52;9.93;;;;;;;;;;4960823;28;20031;-93
2023/01/19 11:46:24;;;;;;;14.77;9.77;;;;;;;;;;4960963;28;20033;-88
2023/01/19 11:49:17;;;;;;;15.20;9.68;;;;;;;;;;4960876;28;20039;-87
2023/01/19 11:51:50;;;;;;;15.93;9.32;;;;;;;;;;4957022;28;20495;-89
2023/01/19 11:54:22;;;;;;;14.52;9.32;;;;;;;;;;4961109;28;20029;-92
2023/01/19 11:56:52;;;;;;;14.35;9.02;;;;;;;;;;4962898;28;20085;-92
2023/01/19 11:59:34;;;;;;;13.85;8.95;;;;;;;;;;4960782;28;20018;-91
2023/01/19 12:02:02;;;;;;;16.50;9.60;;;;;;;;;;4961733;28;20066;-92
2023/01/19 12:04:34;;;;;;;14.75;9.68;;;;;;;;;;4960695;28;20082;-91
2023/01/19 12:07:06;;;;;;;13.80;9.00;;;;;;;;;;4960634;28;20108;-95
2023/01/19 12:09:51;;;;;;;14.18;9.77;;;;;;;;;;4961344;28;20054;-94
2023/01/19 12:12:46;;;;;;;15.70;9.93;;;;;;;;;;4963108;28;20023;-95
2023/01/19 12:15:11;;;;;;;;;;;;;;;;;;4963470;28;20031;-93
2023/01/19 12:17:45;;;;;;;17.23;10.23;;;;;;;;;;4960325;28;19913;-92
2023/01/19 12:20:23;;;;;;;16.13;9.73;;;;;;;;;;4960909;28;20022;-89
2023/01/19 12:23:08;;;;;;;15.18;9.60;;;;;;;;;;4960290;28;20037;-86
2023/01/19 12:25:57;;;;;;;14.02;8.93;;;;;;;;;;4960340;28;20026;-90
2023/01/19 12:28:29;;;;;;;12.40;8.40;;;;;;;;;;4935721;28;20047;-94
2023/01/19 12:31:02;;;;;;;11.70;8.07;;;;;;;;;;4960521;28;20023;-94
2023/01/19 12:33:28;;;;;;;12.48;8.50;;;;;;;;;;4961027;28;20542;-92
2023/01/19 12:35:59;;;;;;;11.50;8.43;;;;;;;;;;4961990;28;20117;-89
2023/01/19 12:38:37;;;;;;;12.98;8.75;;;;;;;;;;4940240;28;20047;-89
2023/01/19 12:41:23;;;;;;;14.18;9.18;;;;;;;;;;4959790;28;20065;-90
2023/01/19 12:44:15;;;;;;;13.05;8.65;;;;;;;;;;4959677;28;20424;-88
2023/01/19 12:46:41;;;;;;;12.35;8.07;;;;;;;;;;4960801;28;20085;-89
2023/01/19 12:49:18;;;;;;;11.95;7.65;;;;;;;;;;4961302;28;20035;-88
2023/01/19 12:51:44;;;;;;;9.77;6.97;;;;;;;;;;4959517;28;20030;-87
2023/01/19 12:54:31;;;;;;;12.48;8.25;;;;;;;;;;4959191;28;20034;-90
2023/01/19 12:57:08;;;;;;;12.35;7.45;;;;;;;;;;4959772;28;20030;-89
2023/01/19 13:05:31;;;;;;;13.35;7.28;;;;;;;;;;5182738;23;20439;-88
2023/01/19 13:08:12;;;;;;;12.90;7.88;;;;;;;;;;4937403;29;20099;-90
2023/01/19 13:10:57;;;;;;;14.75;7.82;;;;;;;;;;4941671;29;20028;-89
2023/01/19 13:13:43;;;;;;;13.00;8.05;;;;;;;;;;4976213;28;20166;-91
2023/01/19 13:16:18;;;;;;;13.63;7.53;;;;;;;;;;4992085;28;20022;-89
2023/01/19 13:21:49;;;;;;;10.82;6.97;;;;;;;;;;4958128;29;20070;-88
2023/01/19 13:24:51;;;;;;;13.73;7.88;;;;;;;;;;4940145;29;20488;-91
2023/01/19 13:27:17;;;;;;;12.27;7.15;;;;;;;;;;4971433;28;20031;-88
2023/01/19 13:29:53;;;;;;;12.73;7.40;;;;;;;;;;4971964;28;20066;-89
2023/01/19 13:32:23;;;;;;;13.77;7.38;;;;;;;;;;4969707;28;20031;-89
2023/01/19 13:34:57;;;;;;;11.40;6.80;;;;;;;;;;4939345;29;20144;-90
2023/01/19 13:37:31;;;;;;;11.57;7.00;;;;;;;;;;4940141;29;20829;-89
2023/01/19 13:39:58;;;;;;;13.75;7.72;;;;;;;;;;4939441;29;20158;-90
2023/01/19 13:42:35;;;;;;;14.82;7.90;;;;;;;;;;4940098;29;20488;-89
2023/01/19 13:45:08;;;;;;;11.43;6.90;;;;;;;;;;4939658;29;20038;-91
2023/01/19 13:47:42;;;;;;;11.57;7.63;;;;;;;;;;4943928;29;20031;-91
2023/01/19 13:50:22;;;;;;;12.25;7.20;;;;;;;;;;4939429;29;20042;-89
2023/01/19 13:52:50;;;;;;;13.20;7.78;;;;;;;;;;4939173;29;20206;-87
2023/01/19 13:55:22;;;;;;;12.93;7.55;;;;;;;;;;4939579;29;20551;-92
2023/01/19 13:57:49;;;;;;;12.00;7.13;;;;;;;;;;4970156;28;20477;-89
2023/01/19 14:00:26;;;;;;;14.23;7.68;;;;;;;;;;4939300;29;20036;-91
2023/01/19 14:02:55;;;;;;;12.15;6.97;;;;;;;;;;4938841;29;20027;-86
2023/01/19 14:05:21;;;;;;;15.00;7.93;;;;;;;;;;4938979;29;20051;-90
2023/01/19 14:07:48;;;;;;;12.88;7.03;;;;;;;;;;4939419;29;20098;-88
2023/01/19 14:10:15;;;;;;;12.45;7.32;;;;;;;;;;4941273;29;20477;-87
2023/01/19 14:12:45;;;;;;;12.30;6.82;;;;;;;;;;4949406;29;20027;-87
2023/01/19 14:15:13;;;;;;;9.98;6.57;;;;;;;;;;4941794;29;20357;-87
2023/01/19 14:17:40;;;;;;;12.27;7.07;;;;;;;;;;4939187;29;20026;-87
2023/01/19 14:20:07;;;;;;;10.68;6.88;;;;;;;;;;4939061;29;20054;-87
2023/01/19 14:22:36;;;;;;;10.93;6.47;;;;;;;;;;4939146;29;20031;-87
2023/01/19 14:25:24;;;;;;;11.20;6.63;;;;;;;;;;4938843;29;20035;-87
2023/01/19 14:27:50;;;;;;;13.25;8.02;;;;;;;;;;4956329;29;20042;-87
2023/01/19 14:30:26;;;;;;;11.20;7.75;;;;;;;;;;4956046;29;20082;-93
2023/01/19 14:32:53;;;;;;;12.40;7.45;;;;;;;;;;4938597;29;20032;-86
2023/01/19 14:35:25;;;;;;;11.07;6.60;;;;;;;;;;4955833;29;20023;-88
2023/01/19 14:37:51;;;;;;;10.48;6.70;;;;;;;;;;4938567;29;20031;-87
2023/01/19 14:40:24;;;;;;;10.48;7.35;;;;;;;;;;4938576;29;20034;-90
2023/01/19 14:42:52;;;;;;;12.15;7.00;;;;;;;;;;4938680;29;20031;-86
2023/01/19 14:45:41;;;;;;;11.63;6.68;;;;;;;;;;4938585;29;20023;-86
2023/01/19 14:48:16;;;;;;;12.05;7.05;;;;;;;;;;4938626;29;20151;-87
2023/01/19 14:50:43;;;;;;;11.27;6.90;;;;;;;;;;4940163;29;20130;-86
2023/01/19 14:53:15;;;;;;;10.43;6.55;;;;;;;;;;4943308;29;20028;-87
2023/01/19 14:55:48;;;;;;;11.82;6.72;;;;;;;;;;4943441;29;20023;-87
2023/01/19 14:58:14;;;;;;;;;;;;;;;;;;4943631;29;20034;-88
2023/01/19 15:00:42;;;;;;;11.38;6.63;;;;;;;;;;4973906;28;19906;-88
2023/01/19 15:03:09;;;;;;;10.77;6.25;;;;;;;;;;4943480;29;20083;-88
2023/01/19 15:05:38;;;;;;;12.50;7.18;;;;;;;;;;4960813;29;20207;-88
2023/01/19 15:08:04;;;;;;;16.23;7.20;;;;;;;;;;4944971;29;20070;-88
2023/01/19 15:10:31;;;;;;;12.88;8.27;;;;;;;;;;4956906;28;20035;-89
2023/01/19 15:13:00;;;;;;;11.70;7.38;;;;;;;;;;4952083;29;20028;-87
2023/01/19 15:15:28;;;;;;;11.65;7.60;;;;;;;;;;4942827;29;20027;-88
2023/01/19 15:17:54;;;;;;;15.80;8.55;;;;;;;;;;4944730;29;20452;-88
2023/01/19 15:20:39;;;;;;;12.75;8.07;;;;;;;;;;4943014;29;20126;-90